Search for airport 
image banner adimage banner adimage banner ad
image banner ad

7CA8 - Eisenhower Medical Center

Located in Rancho Mirage, United States

ICAO - 7CA8, IATA -

Data provided by Airmate  

General information

Coordinates: N33°45'51" W116°24'18"
Elevation is 234 feet MSL.
Magnetic variation is 13° East
View others Airports in California

Operational data

Special qualification required
Current time UTC:
Current local time:
Weather at : KPSP - Palm Springs Intl ( 12 km )
METAR: KPSP 292053Z VRB04KT 10SM CLR 45/16 A2976 RMK AO2 SLP072 T04500161 58021
TAF: KPSP 291733Z 2918/3018 VRB05KT P6SM SKC FM300000 33011G17KT P6SM FEW200 FM300700 33006KT P6SM SCT200
View NOTAMs / SUP AIP / TFR affecting this airport [VIEW]
Communications frequencies: [VIEW]

Runways:

Airport contact information

Address: Rancho Mirage United States

Satellite view of 7CA8